JAL7 KBOS-RJAA
Flight info
| Callsign | JAL7 |
|---|---|
| Flight time | N/A |
| Altitude | 34000 |
| Route | HYLND7 HYLND DCT MHT DCT BUGSY DCT PELEE DCT 61N090W 66N100W/N0494F360 69N110W 71N120W 71N130W DCT VOLOB DCT SCC Q12 OTZ/N0499F380 DCT JUJXI DCT MARCC R338 NATES/N0490F390 R220 NUZAN/N0491F400 R220 NUBDA/N0486F410 R220 NANAC/N0487F400 Y810 OLDIV Y809 SUPOK |
| Aircraft | A359/H-SDE2E3GHIJ3J4J5LM1ORWXY/LB1D1 |
Departure
| Time | N/A |
|---|---|
| Airport | Boston Logan International Airport (KBOS) |
Arrival
| Time | 2026-05-04 07:17 |
|---|---|
| Airport | Narita International Airport (RJAA) |
| Time | Latitude | Longitude | Altitude | Speed | Heading |
|---|---|---|---|---|---|
| 2026-05-04 02:40 | 54.87176 | 171.84467 | 38659 ft | 496 kts | 230° |
| 2026-05-04 02:41 | 54.82782 | 171.75162 | 38766 ft | 499 kts | 231° |
| 2026-05-04 02:41 | 54.78374 | 171.65849 | 38885 ft | 501 kts | 231° |
| 2026-05-04 02:42 | 54.73946 | 171.56552 | 38885 ft | 500 kts | 230° |
| 2026-05-04 02:42 | 54.69515 | 171.47297 | 38879 ft | 500 kts | 230° |
| 2026-05-04 02:43 | 54.65074 | 171.38062 | 38881 ft | 501 kts | 230° |
| 2026-05-04 02:43 | 54.60611 | 171.28823 | 38863 ft | 501 kts | 230° |
| 2026-05-04 02:44 | 54.56142 | 171.19609 | 38861 ft | 500 kts | 230° |
| 2026-05-04 02:44 | 54.51665 | 171.10405 | 38847 ft | 501 kts | 230° |
| 2026-05-04 02:45 | 54.47174 | 171.01207 | 38852 ft | 503 kts | 230° |
| 2026-05-04 02:45 | 54.42674 | 170.92025 | 38846 ft | 501 kts | 230° |
| 2026-05-04 02:46 | 54.38212 | 170.82950 | 38838 ft | 502 kts | 230° |
| 2026-05-04 02:46 | 54.33683 | 170.73772 | 38835 ft | 505 kts | 230° |
| 2026-05-04 02:47 | 54.29131 | 170.64591 | 38832 ft | 505 kts | 230° |
| 2026-05-04 02:47 | 54.24574 | 170.55438 | 38822 ft | 503 kts | 230° |
| 2026-05-04 02:48 | 54.20029 | 170.46328 | 38822 ft | 505 kts | 230° |
| 2026-05-04 02:48 | 54.15457 | 170.37200 | 38806 ft | 507 kts | 230° |
| 2026-05-04 02:49 | 54.10872 | 170.28087 | 38806 ft | 506 kts | 230° |
| 2026-05-04 02:49 | 54.06291 | 170.19008 | 38801 ft | 505 kts | 230° |
| 2026-05-04 02:50 | 54.01680 | 170.09918 | 38791 ft | 509 kts | 230° |
| 2026-05-04 02:50 | 53.97822 | 170.02341 | 38791 ft | 510 kts | 230° |
| 2026-05-04 02:51 | 53.93185 | 169.93260 | 38790 ft | 508 kts | 230° |
| 2026-05-04 02:51 | 53.88561 | 169.84226 | 38777 ft | 507 kts | 230° |
| 2026-05-04 02:52 | 53.83926 | 169.75195 | 38777 ft | 509 kts | 230° |
| 2026-05-04 02:52 | 53.79269 | 169.66175 | 38773 ft | 508 kts | 230° |
| 2026-05-04 02:53 | 53.74605 | 169.57170 | 38763 ft | 508 kts | 230° |
| 2026-05-04 02:53 | 53.69932 | 169.48167 | 38762 ft | 512 kts | 230° |
| 2026-05-04 02:54 | 53.65211 | 169.39117 | 38757 ft | 515 kts | 230° |
| 2026-05-04 02:54 | 53.61138 | 169.29309 | 38755 ft | 511 kts | 241° |
| 2026-05-04 02:55 | 53.56068 | 169.13727 | 38751 ft | 507 kts | 243° |
| 2026-05-04 02:56 | 53.52753 | 169.03263 | 38737 ft | 507 kts | 243° |
| 2026-05-04 02:56 | 53.49413 | 168.92845 | 38738 ft | 506 kts | 243° |
| 2026-05-04 02:57 | 53.46050 | 168.82456 | 38736 ft | 507 kts | 243° |
| 2026-05-04 02:57 | 53.42704 | 168.72060 | 38738 ft | 505 kts | 244° |
| 2026-05-04 02:58 | 53.39373 | 168.61711 | 38733 ft | 505 kts | 244° |
| 2026-05-04 02:58 | 53.36092 | 168.51434 | 38725 ft | 498 kts | 243° |
| 2026-05-04 02:59 | 53.32813 | 168.41275 | 38723 ft | 490 kts | 244° |
| 2026-05-04 02:59 | 53.29531 | 168.31353 | 38724 ft | 489 kts | 242° |
| 2026-05-04 03:00 | 53.26070 | 168.21467 | 38727 ft | 496 kts | 242° |
| 2026-05-04 03:00 | 53.22588 | 168.11457 | 38727 ft | 501 kts | 242° |
| 2026-05-04 03:01 | 53.19164 | 168.01290 | 38724 ft | 504 kts | 242° |
| 2026-05-04 03:01 | 53.15747 | 167.91106 | 38721 ft | 503 kts | 242° |
| 2026-05-04 03:02 | 53.12308 | 167.80934 | 38723 ft | 503 kts | 242° |
| 2026-05-04 03:02 | 53.08882 | 167.70862 | 38713 ft | 503 kts | 242° |
| 2026-05-04 03:03 | 53.05430 | 167.60753 | 38711 ft | 502 kts | 243° |
| 2026-05-04 03:03 | 53.02131 | 167.50632 | 38703 ft | 495 kts | 243° |
| 2026-05-04 03:04 | 52.98765 | 167.40648 | 38710 ft | 495 kts | 243° |
| 2026-05-04 03:04 | 52.95235 | 167.30763 | 38696 ft | 501 kts | 241° |
| 2026-05-04 03:05 | 52.91682 | 167.20820 | 38698 ft | 500 kts | 243° |
| 2026-05-04 03:05 | 52.88145 | 167.10910 | 38725 ft | 499 kts | 243° |
| 2026-05-04 03:06 | 52.84711 | 167.00952 | 38695 ft | 498 kts | 241° |
| 2026-05-04 03:06 | 52.81190 | 166.91079 | 38693 ft | 498 kts | 242° |
| 2026-05-04 03:07 | 52.77768 | 166.81132 | 38691 ft | 498 kts | 244° |
| 2026-05-04 03:07 | 52.74331 | 166.71233 | 38691 ft | 496 kts | 242° |
| 2026-05-04 03:08 | 52.70786 | 166.61532 | 38698 ft | 491 kts | 242° |
| 2026-05-04 03:08 | 52.67293 | 166.51804 | 38691 ft | 494 kts | 242° |
| 2026-05-04 03:09 | 52.63802 | 166.42088 | 38687 ft | 492 kts | 242° |
| 2026-05-04 03:09 | 52.60337 | 166.32462 | 38679 ft | 491 kts | 242° |
| 2026-05-04 03:10 | 52.56854 | 166.22824 | 38689 ft | 489 kts | 242° |
| 2026-05-04 03:10 | 52.53370 | 166.13217 | 38678 ft | 489 kts | 242° |
| 2026-05-04 03:11 | 52.49879 | 166.03629 | 38679 ft | 488 kts | 241° |
| 2026-05-04 03:11 | 52.46383 | 165.94108 | 38679 ft | 488 kts | 242° |
| 2026-05-04 03:12 | 52.42891 | 165.84528 | 38683 ft | 489 kts | 241° |
| 2026-05-04 03:12 | 52.39388 | 165.75012 | 38683 ft | 487 kts | 241° |
| 2026-05-04 03:13 | 52.35881 | 165.65529 | 38676 ft | 487 kts | 241° |
| 2026-05-04 03:13 | 52.32372 | 165.56075 | 38680 ft | 486 kts | 241° |
| 2026-05-04 03:14 | 52.28853 | 165.46625 | 38680 ft | 486 kts | 241° |
| 2026-05-04 03:14 | 52.25353 | 165.37259 | 38680 ft | 486 kts | 241° |
| 2026-05-04 03:15 | 52.21823 | 165.27848 | 38675 ft | 486 kts | 241° |
| 2026-05-04 03:15 | 52.18285 | 165.18452 | 38675 ft | 486 kts | 240° |
| 2026-05-04 03:16 | 52.14739 | 165.09068 | 38665 ft | 486 kts | 241° |
| 2026-05-04 03:16 | 52.11195 | 164.99728 | 38674 ft | 484 kts | 241° |
| 2026-05-04 03:17 | 52.07654 | 164.90426 | 38669 ft | 483 kts | 241° |
| 2026-05-04 03:17 | 52.04108 | 164.81144 | 38669 ft | 483 kts | 240° |
| 2026-05-04 03:18 | 52.00557 | 164.71883 | 38671 ft | 483 kts | 241° |
| 2026-05-04 03:18 | 51.97001 | 164.62645 | 38673 ft | 481 kts | 241° |
| 2026-05-04 03:19 | 51.93457 | 164.53471 | 38669 ft | 480 kts | 241° |
| 2026-05-04 03:19 | 51.89909 | 164.44317 | 38669 ft | 480 kts | 241° |
| 2026-05-04 03:20 | 51.86354 | 164.35179 | 38670 ft | 480 kts | 241° |
| 2026-05-04 03:20 | 51.82790 | 164.26050 | 38671 ft | 480 kts | 241° |
| 2026-05-04 03:21 | 51.79234 | 164.16976 | 38676 ft | 476 kts | 241° |
| 2026-05-04 03:21 | 51.75716 | 164.08030 | 38674 ft | 475 kts | 241° |
| 2026-05-04 03:22 | 51.72167 | 163.99034 | 38677 ft | 475 kts | 241° |
| 2026-05-04 03:22 | 51.68614 | 163.90060 | 38679 ft | 475 kts | 240° |
| 2026-05-04 03:23 | 51.65049 | 163.81088 | 38676 ft | 474 kts | 240° |
| 2026-05-04 03:23 | 51.61501 | 163.72196 | 38678 ft | 472 kts | 241° |
| 2026-05-04 03:24 | 51.57953 | 163.63327 | 38678 ft | 471 kts | 241° |
| 2026-05-04 03:24 | 51.54403 | 163.54478 | 38685 ft | 471 kts | 241° |
| 2026-05-04 03:25 | 51.50845 | 163.45643 | 38685 ft | 471 kts | 241° |
| 2026-05-04 03:25 | 51.47291 | 163.36850 | 38669 ft | 468 kts | 241° |
| 2026-05-04 03:26 | 51.43752 | 163.28126 | 38688 ft | 466 kts | 241° |
| 2026-05-04 03:26 | 51.40208 | 163.19414 | 38685 ft | 466 kts | 241° |
| 2026-05-04 03:27 | 51.36680 | 163.10773 | 38677 ft | 467 kts | 241° |
| 2026-05-04 03:27 | 51.33127 | 163.02099 | 38676 ft | 466 kts | 241° |
| 2026-05-04 03:28 | 51.29560 | 162.93422 | 38689 ft | 463 kts | 241° |
| 2026-05-04 03:28 | 51.26049 | 162.84908 | 38689 ft | 462 kts | 240° |
| 2026-05-04 03:29 | 51.22508 | 162.76353 | 38689 ft | 462 kts | 241° |
| 2026-05-04 03:29 | 51.18965 | 162.67815 | 38689 ft | 461 kts | 241° |
| 2026-05-04 03:30 | 51.15423 | 162.59307 | 38687 ft | 459 kts | 241° |
| 2026-05-04 03:30 | 51.11899 | 162.50877 | 38684 ft | 457 kts | 241° |
| 2026-05-04 03:31 | 51.08370 | 162.42458 | 38695 ft | 457 kts | 240° |
| 2026-05-04 03:31 | 51.04839 | 162.34059 | 38694 ft | 457 kts | 240° |
| 2026-05-04 03:32 | 51.01301 | 162.25673 | 38687 ft | 457 kts | 240° |
| 2026-05-04 03:32 | 50.97769 | 162.17331 | 38693 ft | 454 kts | 240° |
| 2026-05-04 03:33 | 50.94245 | 162.09033 | 38695 ft | 453 kts | 240° |
| 2026-05-04 03:33 | 50.90725 | 162.00768 | 38703 ft | 453 kts | 240° |
| 2026-05-04 03:34 | 50.88973 | 161.96665 | 38698 ft | 453 kts | 240° |
| 2026-05-04 03:34 | 50.88153 | 161.94747 | 38701 ft | 453 kts | 240° |
| 2026-05-04 03:35 | 50.85245 | 161.87957 | 38712 ft | 452 kts | 240° |
| 2026-05-04 03:35 | 50.81702 | 161.79713 | 38701 ft | 446 kts | 240° |
| 2026-05-04 03:36 | 50.78216 | 161.71618 | 38708 ft | 445 kts | 240° |
| 2026-05-04 03:36 | 50.74725 | 161.63536 | 38708 ft | 445 kts | 240° |
| 2026-05-04 03:37 | 50.71229 | 161.55468 | 38708 ft | 445 kts | 240° |
| 2026-05-04 03:37 | 50.67727 | 161.47412 | 38708 ft | 445 kts | 240° |
| 2026-05-04 03:38 | 50.64222 | 161.39375 | 38711 ft | 445 kts | 240° |
| 2026-05-04 03:38 | 50.60711 | 161.31351 | 38711 ft | 445 kts | 240° |
| 2026-05-04 03:39 | 50.57789 | 161.24689 | 38714 ft | 445 kts | 240° |
| 2026-05-04 03:39 | 50.54267 | 161.16682 | 38714 ft | 445 kts | 240° |
| 2026-05-04 03:40 | 50.50741 | 161.08692 | 38712 ft | 444 kts | 240° |
| 2026-05-04 03:40 | 50.47229 | 161.00768 | 38709 ft | 441 kts | 241° |
| 2026-05-04 03:41 | 50.43738 | 160.92908 | 38716 ft | 438 kts | 241° |
| 2026-05-04 03:41 | 50.40254 | 160.85079 | 38716 ft | 438 kts | 241° |
| 2026-05-04 03:42 | 50.36766 | 160.77262 | 38717 ft | 438 kts | 241° |
| 2026-05-04 03:42 | 50.33277 | 160.69472 | 38716 ft | 435 kts | 241° |
| 2026-05-04 03:43 | 50.29815 | 160.61773 | 38720 ft | 432 kts | 241° |
| 2026-05-04 03:43 | 50.26357 | 160.54094 | 38722 ft | 431 kts | 241° |
| 2026-05-04 03:44 | 50.22897 | 160.46434 | 38728 ft | 431 kts | 240° |
| 2026-05-04 03:44 | 50.19431 | 160.38784 | 38864 ft | 432 kts | 240° |
| 2026-05-04 03:44 | 50.17696 | 160.34975 | 39057 ft | 429 kts | 240° |
| 2026-05-04 03:45 | 50.15968 | 160.31199 | 39294 ft | 426 kts | 240° |
| 2026-05-04 03:45 | 50.14244 | 160.27436 | 39395 ft | 427 kts | 240° |
| 2026-05-04 03:45 | 50.12516 | 160.23666 | 39463 ft | 428 kts | 240° |
| 2026-05-04 03:46 | 50.09047 | 160.16113 | 39630 ft | 428 kts | 241° |
| 2026-05-04 03:46 | 50.07312 | 160.12344 | 39731 ft | 428 kts | 241° |
| 2026-05-04 03:46 | 50.05578 | 160.08582 | 39731 ft | 427 kts | 241° |
| 2026-05-04 03:47 | 50.02106 | 160.01070 | 39750 ft | 427 kts | 240° |
| 2026-05-04 03:47 | 49.98640 | 159.93595 | 39752 ft | 425 kts | 241° |
| 2026-05-04 03:48 | 49.95188 | 159.86167 | 39754 ft | 424 kts | 241° |
| 2026-05-04 03:48 | 49.91757 | 159.78798 | 39764 ft | 424 kts | 241° |
| 2026-05-04 03:49 | 49.88297 | 159.71390 | 39760 ft | 424 kts | 241° |
| 2026-05-04 03:49 | 49.84833 | 159.63996 | 39765 ft | 424 kts | 241° |
| 2026-05-04 03:50 | 49.81373 | 159.56631 | 39764 ft | 421 kts | 240° |
| 2026-05-04 03:50 | 49.77923 | 159.49310 | 39783 ft | 421 kts | 240° |
| 2026-05-04 03:51 | 49.74467 | 159.41994 | 39777 ft | 421 kts | 240° |
| 2026-05-04 03:51 | 49.71004 | 159.34684 | 39787 ft | 421 kts | 240° |
| 2026-05-04 03:52 | 49.67500 | 159.27437 | 39783 ft | 421 kts | 240° |
| 2026-05-04 03:52 | 49.63996 | 159.20331 | 39787 ft | 417 kts | 239° |
| 2026-05-04 03:53 | 49.60486 | 159.13219 | 39796 ft | 416 kts | 240° |
| 2026-05-04 03:53 | 49.56982 | 159.06113 | 39794 ft | 416 kts | 240° |
| 2026-05-04 03:54 | 49.53479 | 158.99020 | 39798 ft | 416 kts | 239° |
| 2026-05-04 03:54 | 49.49966 | 158.91926 | 39804 ft | 416 kts | 239° |
| 2026-05-04 03:55 | 49.46462 | 158.84874 | 39808 ft | 414 kts | 239° |
| 2026-05-04 03:55 | 49.42961 | 158.77843 | 39815 ft | 414 kts | 239° |
| 2026-05-04 03:56 | 49.39455 | 158.70818 | 39811 ft | 414 kts | 239° |
| 2026-05-04 03:56 | 49.35945 | 158.63806 | 39818 ft | 414 kts | 239° |
| 2026-05-04 03:57 | 49.32432 | 158.56807 | 39793 ft | 414 kts | 240° |
| 2026-05-04 03:57 | 49.28951 | 158.49896 | 39826 ft | 411 kts | 240° |
| 2026-05-04 03:58 | 49.23720 | 158.39534 | 39826 ft | 410 kts | 240° |
| 2026-05-04 03:58 | 49.20229 | 158.32639 | 39826 ft | 410 kts | 240° |
| 2026-05-04 03:59 | 49.16733 | 158.25753 | 39826 ft | 410 kts | 240° |
| 2026-05-04 03:59 | 49.13243 | 158.18906 | 39834 ft | 407 kts | 240° |
| 2026-05-04 04:00 | 49.09771 | 158.12104 | 39842 ft | 406 kts | 240° |
| 2026-05-04 04:00 | 49.06297 | 158.05312 | 39846 ft | 406 kts | 240° |
| 2026-05-04 04:01 | 49.02819 | 157.98530 | 39843 ft | 406 kts | 240° |
| 2026-05-04 04:01 | 48.99359 | 157.91803 | 39845 ft | 406 kts | 240° |
| 2026-05-04 04:02 | 48.95871 | 157.85038 | 39851 ft | 406 kts | 239° |
| 2026-05-04 04:02 | 48.92381 | 157.78286 | 39842 ft | 406 kts | 240° |
| 2026-05-04 04:03 | 48.88895 | 157.71561 | 39850 ft | 404 kts | 240° |
| 2026-05-04 04:03 | 48.85411 | 157.64856 | 39856 ft | 404 kts | 240° |
| 2026-05-04 04:04 | 48.81926 | 157.58165 | 39847 ft | 404 kts | 240° |
| 2026-05-04 04:04 | 48.78444 | 157.51499 | 39856 ft | 403 kts | 240° |
| 2026-05-04 04:05 | 48.74959 | 157.44843 | 39856 ft | 403 kts | 240° |
| 2026-05-04 04:05 | 48.71470 | 157.38195 | 39856 ft | 403 kts | 240° |
| 2026-05-04 04:06 | 48.67978 | 157.31558 | 39859 ft | 403 kts | 240° |
| 2026-05-04 04:06 | 48.64484 | 157.24930 | 39856 ft | 403 kts | 240° |
| 2026-05-04 04:07 | 48.60989 | 157.18320 | 39857 ft | 402 kts | 240° |
| 2026-05-04 04:07 | 48.57491 | 157.11720 | 39860 ft | 402 kts | 240° |
| 2026-05-04 04:08 | 48.53991 | 157.05132 | 39861 ft | 402 kts | 240° |
| 2026-05-04 04:08 | 48.50490 | 156.98560 | 39866 ft | 402 kts | 240° |
| 2026-05-04 04:09 | 48.46991 | 156.92003 | 39862 ft | 401 kts | 239° |
| 2026-05-04 04:09 | 48.43493 | 156.85468 | 39865 ft | 400 kts | 239° |
| 2026-05-04 04:10 | 48.39995 | 156.78950 | 39865 ft | 400 kts | 239° |
| 2026-05-04 04:10 | 48.36492 | 156.72437 | 39873 ft | 400 kts | 239° |
| 2026-05-04 04:11 | 48.32987 | 156.65937 | 39869 ft | 400 kts | 239° |
| 2026-05-04 04:11 | 48.29480 | 156.59446 | 39866 ft | 399 kts | 239° |
| 2026-05-04 04:12 | 48.26017 | 156.53060 | 39866 ft | 396 kts | 239° |
| 2026-05-04 04:12 | 48.22538 | 156.46654 | 39870 ft | 395 kts | 239° |
| 2026-05-04 04:13 | 48.19061 | 156.40263 | 39870 ft | 395 kts | 239° |
| 2026-05-04 04:13 | 48.15582 | 156.33884 | 39859 ft | 395 kts | 239° |
| 2026-05-04 04:14 | 48.12118 | 156.27554 | 39861 ft | 391 kts | 239° |
| 2026-05-04 04:14 | 48.08675 | 156.21278 | 39865 ft | 389 kts | 239° |
| 2026-05-04 04:15 | 48.05267 | 156.15073 | 39866 ft | 389 kts | 239° |
| 2026-05-04 04:15 | 48.01835 | 156.08838 | 39884 ft | 389 kts | 239° |
| 2026-05-04 04:16 | 47.98393 | 156.02600 | 39875 ft | 389 kts | 239° |
| 2026-05-04 04:16 | 47.94952 | 155.96379 | 39868 ft | 388 kts | 238° |
| 2026-05-04 04:17 | 47.91516 | 155.90186 | 39873 ft | 387 kts | 238° |
| 2026-05-04 04:17 | 47.88079 | 155.84003 | 39872 ft | 387 kts | 238° |
| 2026-05-04 04:18 | 47.84639 | 155.77828 | 39869 ft | 387 kts | 238° |
| 2026-05-04 04:18 | 47.81196 | 155.71660 | 39868 ft | 387 kts | 238° |
| 2026-05-04 04:19 | 47.77750 | 155.65502 | 39828 ft | 386 kts | 238° |
| 2026-05-04 04:19 | 47.74313 | 155.59377 | 39870 ft | 385 kts | 238° |
| 2026-05-04 04:20 | 47.70882 | 155.53276 | 39867 ft | 385 kts | 238° |
| 2026-05-04 04:20 | 47.67449 | 155.47182 | 39867 ft | 385 kts | 238° |
| 2026-05-04 04:21 | 47.64011 | 155.41095 | 39865 ft | 385 kts | 238° |
| 2026-05-04 04:21 | 47.60575 | 155.35020 | 39868 ft | 384 kts | 238° |
| 2026-05-04 04:22 | 47.57144 | 155.28975 | 39865 ft | 383 kts | 238° |
| 2026-05-04 04:22 | 47.53711 | 155.22938 | 39862 ft | 383 kts | 238° |
| 2026-05-04 04:23 | 47.50300 | 155.16951 | 39862 ft | 383 kts | 238° |
| 2026-05-04 04:23 | 47.46859 | 155.10927 | 39865 ft | 383 kts | 238° |
| 2026-05-04 04:24 | 47.43421 | 155.04918 | 39855 ft | 382 kts | 237° |
| 2026-05-04 04:24 | 47.39996 | 154.98950 | 39856 ft | 380 kts | 237° |
| 2026-05-04 04:25 | 47.36579 | 154.93007 | 39853 ft | 380 kts | 237° |
| 2026-05-04 04:25 | 47.33160 | 154.87071 | 39855 ft | 380 kts | 237° |
| 2026-05-04 04:26 | 47.29735 | 154.81139 | 39847 ft | 380 kts | 237° |
| 2026-05-04 04:26 | 47.26307 | 154.75215 | 39848 ft | 380 kts | 237° |
| 2026-05-04 04:27 | 47.22873 | 154.69295 | 39845 ft | 380 kts | 237° |
| 2026-05-04 04:27 | 47.19438 | 154.63385 | 39845 ft | 380 kts | 237° |
| 2026-05-04 04:28 | 47.16580 | 154.58478 | 39848 ft | 380 kts | 237° |
| 2026-05-04 04:28 | 47.13139 | 154.52581 | 39848 ft | 380 kts | 237° |
| 2026-05-04 04:29 | 47.09695 | 154.46693 | 39846 ft | 379 kts | 237° |
| 2026-05-04 04:29 | 47.06256 | 154.40826 | 39845 ft | 379 kts | 237° |
| 2026-05-04 04:30 | 47.02816 | 154.34968 | 39840 ft | 379 kts | 237° |
| 2026-05-04 04:30 | 46.99371 | 154.29114 | 39838 ft | 379 kts | 237° |
| 2026-05-04 04:31 | 46.95924 | 154.23271 | 39834 ft | 379 kts | 237° |
| 2026-05-04 04:31 | 46.92476 | 154.17437 | 39835 ft | 379 kts | 237° |
| 2026-05-04 04:32 | 46.89029 | 154.11620 | 39825 ft | 378 kts | 237° |
| 2026-05-04 04:32 | 46.85582 | 154.05816 | 39835 ft | 378 kts | 237° |
| 2026-05-04 04:33 | 46.82134 | 154.00018 | 39826 ft | 378 kts | 237° |
| 2026-05-04 04:33 | 46.78684 | 153.94233 | 39822 ft | 378 kts | 237° |
| 2026-05-04 04:34 | 46.75232 | 153.88453 | 39816 ft | 377 kts | 236° |
| 2026-05-04 04:34 | 46.74178 | 153.86692 | 39817 ft | 377 kts | 236° |
| 2026-05-04 04:35 | 46.71716 | 153.82583 | 39815 ft | 377 kts | 236° |
| 2026-05-04 04:36 | 46.68268 | 153.76837 | 39811 ft | 377 kts | 236° |
| 2026-05-04 04:36 | 46.64818 | 153.71099 | 39808 ft | 377 kts | 236° |
| 2026-05-04 04:37 | 46.57906 | 153.59637 | 39803 ft | 377 kts | 236° |
| 2026-05-04 04:38 | 46.54450 | 153.53927 | 39796 ft | 376 kts | 236° |
| 2026-05-04 04:38 | 46.50990 | 153.48224 | 39796 ft | 376 kts | 236° |
| 2026-05-04 04:39 | 46.47530 | 153.42529 | 39788 ft | 376 kts | 236° |
| 2026-05-04 04:39 | 46.44065 | 153.36840 | 39788 ft | 376 kts | 236° |
| 2026-05-04 04:40 | 46.40599 | 153.31158 | 39781 ft | 375 kts | 235° |
| 2026-05-04 04:40 | 46.37165 | 153.25544 | 39781 ft | 375 kts | 235° |
| 2026-05-04 04:41 | 46.33707 | 153.19900 | 39770 ft | 375 kts | 235° |
| 2026-05-04 04:41 | 46.30243 | 153.14258 | 39772 ft | 375 kts | 235° |
| 2026-05-04 04:42 | 46.26782 | 153.08632 | 39762 ft | 375 kts | 235° |
| 2026-05-04 04:42 | 46.23319 | 153.03016 | 39756 ft | 374 kts | 235° |
| 2026-05-04 04:43 | 46.19857 | 152.97426 | 39756 ft | 373 kts | 235° |
| 2026-05-04 04:43 | 46.16378 | 152.91871 | 39755 ft | 373 kts | 234° |
| 2026-05-04 04:44 | 46.12888 | 152.86322 | 39744 ft | 373 kts | 234° |
| 2026-05-04 04:44 | 46.09401 | 152.80781 | 39739 ft | 373 kts | 234° |
| 2026-05-04 04:45 | 46.05919 | 152.75255 | 39733 ft | 372 kts | 234° |
| 2026-05-04 04:47 | 45.93765 | 152.56046 | 39713 ft | 372 kts | 234° |
| 2026-05-04 04:47 | 45.90280 | 152.50563 | 39712 ft | 371 kts | 234° |
| 2026-05-04 04:48 | 45.86800 | 152.45100 | 39702 ft | 370 kts | 234° |
| 2026-05-04 04:49 | 45.78103 | 152.31495 | 39693 ft | 370 kts | 234° |
| 2026-05-04 04:49 | 45.74620 | 152.26064 | 39685 ft | 370 kts | 233° |
| 2026-05-04 04:50 | 45.71138 | 152.20649 | 39680 ft | 369 kts | 233° |
| 2026-05-04 04:50 | 45.67668 | 152.15259 | 39675 ft | 368 kts | 233° |
| 2026-05-04 04:51 | 45.64196 | 152.09877 | 39675 ft | 368 kts | 233° |
| 2026-05-04 04:51 | 45.60722 | 152.04503 | 39664 ft | 368 kts | 233° |
| 2026-05-04 04:52 | 45.57244 | 151.99133 | 39664 ft | 368 kts | 233° |
| 2026-05-04 04:52 | 45.53761 | 151.93767 | 39656 ft | 368 kts | 233° |
| 2026-05-04 04:53 | 45.50279 | 151.88413 | 39627 ft | 368 kts | 233° |
| 2026-05-04 04:53 | 45.46792 | 151.83050 | 39652 ft | 370 kts | 232° |
| 2026-05-04 04:54 | 45.43275 | 151.77664 | 39654 ft | 372 kts | 232° |
| 2026-05-04 04:54 | 45.39771 | 151.72314 | 39641 ft | 372 kts | 232° |
| 2026-05-04 04:55 | 45.36247 | 151.66942 | 39644 ft | 371 kts | 232° |
| 2026-05-04 04:55 | 45.32724 | 151.61577 | 39636 ft | 371 kts | 232° |
| 2026-05-04 04:56 | 45.29197 | 151.56217 | 39638 ft | 371 kts | 232° |
| 2026-05-04 04:56 | 45.25667 | 151.50861 | 39624 ft | 371 kts | 232° |
| 2026-05-04 04:57 | 45.22132 | 151.45512 | 39626 ft | 371 kts | 231° |
| 2026-05-04 04:57 | 45.18594 | 151.40167 | 39623 ft | 372 kts | 231° |
| 2026-05-04 04:58 | 45.15057 | 151.34831 | 39619 ft | 372 kts | 231° |
| 2026-05-04 04:58 | 45.11511 | 151.29496 | 39600 ft | 372 kts | 231° |
| 2026-05-04 04:59 | 45.07962 | 151.24166 | 39611 ft | 372 kts | 231° |
| 2026-05-04 04:59 | 45.04405 | 151.18830 | 39609 ft | 373 kts | 231° |
| 2026-05-04 05:00 | 45.00849 | 151.13507 | 39611 ft | 372 kts | 231° |
| 2026-05-04 05:01 | 44.95508 | 151.05537 | 39601 ft | 372 kts | 231° |
| 2026-05-04 05:01 | 44.91941 | 151.00226 | 39590 ft | 373 kts | 231° |
| 2026-05-04 05:02 | 44.88374 | 150.94925 | 39595 ft | 372 kts | 231° |
| 2026-05-04 05:02 | 44.84828 | 150.89667 | 39586 ft | 372 kts | 231° |
| 2026-05-04 05:03 | 44.81260 | 150.84384 | 39584 ft | 372 kts | 230° |
| 2026-05-04 05:04 | 44.74110 | 150.73829 | 39567 ft | 373 kts | 231° |
| 2026-05-04 05:04 | 44.70529 | 150.68558 | 39565 ft | 373 kts | 230° |
| 2026-05-04 05:06 | 44.56187 | 150.47545 | 39544 ft | 373 kts | 230° |
| 2026-05-04 05:07 | 44.52591 | 150.42303 | 39534 ft | 373 kts | 230° |
| 2026-05-04 05:07 | 44.48995 | 150.37071 | 39540 ft | 373 kts | 230° |
| 2026-05-04 05:09 | 44.34535 | 150.16124 | 40260 ft | 376 kts | 230° |
| 2026-05-04 05:09 | 44.32712 | 150.13496 | 40357 ft | 376 kts | 230° |
| 2026-05-04 05:10 | 44.29066 | 150.08247 | 40514 ft | 377 kts | 230° |
| 2026-05-04 05:10 | 44.25408 | 150.02988 | 40516 ft | 377 kts | 230° |
| 2026-05-04 05:11 | 44.21750 | 149.97740 | 40513 ft | 378 kts | 229° |
| 2026-05-04 05:11 | 44.18084 | 149.92490 | 40505 ft | 378 kts | 229° |
| 2026-05-04 05:12 | 44.14416 | 149.87249 | 40506 ft | 378 kts | 229° |
| 2026-05-04 05:12 | 44.10747 | 149.82015 | 40502 ft | 378 kts | 229° |
| 2026-05-04 05:13 | 44.07072 | 149.76782 | 40502 ft | 378 kts | 229° |
| 2026-05-04 05:13 | 44.03393 | 149.71553 | 40498 ft | 378 kts | 229° |
| 2026-05-04 05:14 | 43.99711 | 149.66332 | 40496 ft | 378 kts | 229° |
| 2026-05-04 05:14 | 43.96029 | 149.61120 | 40498 ft | 378 kts | 229° |
| 2026-05-04 05:15 | 43.92371 | 149.55950 | 40492 ft | 378 kts | 229° |
| 2026-05-04 05:15 | 43.88660 | 149.50716 | 40490 ft | 378 kts | 229° |
| 2026-05-04 05:16 | 43.84998 | 149.45560 | 40491 ft | 378 kts | 229° |
| 2026-05-04 05:16 | 43.81303 | 149.40368 | 40489 ft | 378 kts | 229° |
| 2026-05-04 05:17 | 43.77608 | 149.35185 | 40492 ft | 378 kts | 229° |
| 2026-05-04 05:17 | 43.73912 | 149.30011 | 40490 ft | 378 kts | 229° |
| 2026-05-04 05:18 | 43.70213 | 149.24842 | 40491 ft | 378 kts | 229° |
| 2026-05-04 05:18 | 43.67137 | 149.20551 | 40493 ft | 378 kts | 229° |
| 2026-05-04 05:19 | 43.63435 | 149.15396 | 40481 ft | 378 kts | 229° |
| 2026-05-04 05:19 | 43.59729 | 149.10245 | 40481 ft | 378 kts | 229° |
| 2026-05-04 05:20 | 43.56024 | 149.05104 | 40482 ft | 378 kts | 229° |
| 2026-05-04 05:20 | 43.52312 | 148.99965 | 40475 ft | 378 kts | 229° |
| 2026-05-04 05:21 | 43.48603 | 148.94838 | 40478 ft | 378 kts | 229° |
| 2026-05-04 05:21 | 43.44890 | 148.89714 | 40470 ft | 378 kts | 229° |
| 2026-05-04 05:22 | 43.41177 | 148.84601 | 40484 ft | 378 kts | 229° |
| 2026-05-04 05:22 | 43.37462 | 148.79494 | 40468 ft | 378 kts | 229° |
| 2026-05-04 05:23 | 43.33743 | 148.74391 | 40461 ft | 378 kts | 229° |
| 2026-05-04 05:23 | 43.30023 | 148.69296 | 40459 ft | 378 kts | 229° |
| 2026-05-04 05:24 | 43.26301 | 148.64208 | 40462 ft | 378 kts | 229° |
| 2026-05-04 05:24 | 43.22578 | 148.59128 | 40463 ft | 377 kts | 229° |
| 2026-05-04 05:25 | 43.18859 | 148.54062 | 40458 ft | 377 kts | 229° |
| 2026-05-04 05:25 | 43.15137 | 148.49001 | 40457 ft | 377 kts | 229° |
| 2026-05-04 05:26 | 43.11410 | 148.43943 | 40462 ft | 377 kts | 229° |
| 2026-05-04 05:26 | 43.07710 | 148.38930 | 40453 ft | 377 kts | 229° |
| 2026-05-04 05:28 | 42.92797 | 148.18817 | 40449 ft | 376 kts | 228° |
| 2026-05-04 05:29 | 42.89064 | 148.13806 | 40439 ft | 376 kts | 228° |
| 2026-05-04 05:29 | 42.87010 | 148.11052 | 40453 ft | 376 kts | 228° |
| 2026-05-04 05:31 | 42.72349 | 147.91474 | 40446 ft | 375 kts | 228° |
| 2026-05-04 05:32 | 42.68617 | 147.86512 | 40438 ft | 375 kts | 228° |
| 2026-05-04 05:33 | 42.63016 | 147.79082 | 40431 ft | 375 kts | 228° |
| 2026-05-04 05:33 | 42.59278 | 147.74134 | 40432 ft | 375 kts | 228° |
| 2026-05-04 05:34 | 42.55544 | 147.69201 | 40439 ft | 375 kts | 228° |
| 2026-05-04 05:34 | 42.51800 | 147.64261 | 40437 ft | 375 kts | 228° |
| 2026-05-04 05:35 | 42.48052 | 147.59327 | 40432 ft | 375 kts | 228° |
| 2026-05-04 05:35 | 42.44303 | 147.54401 | 40436 ft | 376 kts | 228° |
| 2026-05-04 05:36 | 42.40552 | 147.49479 | 40433 ft | 376 kts | 227° |
| 2026-05-04 05:36 | 42.36824 | 147.44596 | 40426 ft | 375 kts | 227° |
| 2026-05-04 05:37 | 42.33074 | 147.39682 | 40429 ft | 375 kts | 227° |
| 2026-05-04 05:37 | 42.29297 | 147.34740 | 40429 ft | 375 kts | 227° |
| 2026-05-04 05:38 | 42.23686 | 147.27417 | 40428 ft | 376 kts | 227° |
| 2026-05-04 05:38 | 42.19926 | 147.22522 | 40426 ft | 376 kts | 227° |
| 2026-05-04 05:39 | 42.14280 | 147.15186 | 40429 ft | 376 kts | 227° |
| 2026-05-04 05:40 | 42.08631 | 147.07866 | 40438 ft | 375 kts | 227° |
| 2026-05-04 05:40 | 42.04866 | 147.02999 | 40421 ft | 375 kts | 227° |
| 2026-05-04 05:41 | 42.01098 | 146.98135 | 40424 ft | 375 kts | 227° |
| 2026-05-04 05:41 | 41.97326 | 146.93275 | 40434 ft | 375 kts | 227° |
| 2026-05-04 05:42 | 41.93576 | 146.88452 | 40422 ft | 375 kts | 227° |
| 2026-05-04 05:42 | 41.89803 | 146.83603 | 40424 ft | 375 kts | 227° |
| 2026-05-04 05:43 | 41.86031 | 146.78756 | 40423 ft | 376 kts | 227° |
| 2026-05-04 05:45 | 41.70868 | 146.59360 | 40426 ft | 377 kts | 227° |
| 2026-05-04 05:47 | 41.55657 | 146.40036 | 40426 ft | 377 kts | 226° |
| 2026-05-04 05:47 | 41.51891 | 146.35272 | 40418 ft | 377 kts | 226° |
| 2026-05-04 05:48 | 41.48083 | 146.30463 | 40430 ft | 377 kts | 226° |
| 2026-05-04 05:48 | 41.44274 | 146.25661 | 40428 ft | 377 kts | 226° |
| 2026-05-04 05:49 | 41.40462 | 146.20864 | 40429 ft | 377 kts | 226° |
| 2026-05-04 05:49 | 41.36679 | 146.16110 | 40426 ft | 377 kts | 226° |
| 2026-05-04 05:51 | 41.21668 | 145.97328 | 40432 ft | 377 kts | 226° |
| 2026-05-04 05:52 | 41.17848 | 145.92566 | 40423 ft | 376 kts | 226° |
| 2026-05-04 05:52 | 41.14031 | 145.87816 | 40437 ft | 376 kts | 226° |
| 2026-05-04 05:54 | 40.98758 | 145.68901 | 40439 ft | 376 kts | 226° |
| 2026-05-04 05:55 | 40.94935 | 145.64184 | 40442 ft | 376 kts | 226° |
| 2026-05-04 05:55 | 40.91137 | 145.59506 | 40448 ft | 376 kts | 226° |
| 2026-05-04 05:56 | 40.87311 | 145.54802 | 40459 ft | 376 kts | 226° |
| 2026-05-04 05:56 | 40.83490 | 145.50110 | 40439 ft | 375 kts | 225° |
| 2026-05-04 05:57 | 40.79667 | 145.45425 | 40451 ft | 375 kts | 225° |
| 2026-05-04 05:57 | 40.75840 | 145.40743 | 40456 ft | 375 kts | 225° |
| 2026-05-04 05:58 | 40.72015 | 145.36072 | 40456 ft | 375 kts | 225° |
| 2026-05-04 05:58 | 40.68184 | 145.31399 | 40459 ft | 375 kts | 225° |
| 2026-05-04 05:59 | 40.64355 | 145.26738 | 40462 ft | 375 kts | 225° |
| 2026-05-04 05:59 | 40.60522 | 145.22078 | 40462 ft | 375 kts | 225° |
| 2026-05-04 06:00 | 40.56689 | 145.17427 | 40469 ft | 374 kts | 226° |
| 2026-05-04 06:00 | 40.52865 | 145.12796 | 40463 ft | 373 kts | 225° |
| 2026-05-04 06:01 | 40.49042 | 145.08171 | 40464 ft | 373 kts | 225° |
| 2026-05-04 06:03 | 40.33749 | 144.89748 | 40478 ft | 373 kts | 225° |
| 2026-05-04 06:05 | 40.16553 | 144.69167 | 40451 ft | 371 kts | 225° |
| 2026-05-04 06:06 | 40.12730 | 144.64609 | 40491 ft | 373 kts | 225° |
| 2026-05-04 06:06 | 40.08897 | 144.60051 | 40491 ft | 372 kts | 225° |
| 2026-05-04 06:07 | 40.05098 | 144.55540 | 40493 ft | 372 kts | 225° |
| 2026-05-04 06:07 | 40.01272 | 144.51003 | 40493 ft | 372 kts | 225° |
| 2026-05-04 06:08 | 39.97444 | 144.46471 | 40496 ft | 372 kts | 225° |
| 2026-05-04 06:08 | 39.93617 | 144.41947 | 40495 ft | 371 kts | 225° |
| 2026-05-04 06:09 | 39.90443 | 144.38200 | 40495 ft | 370 kts | 225° |
| 2026-05-04 06:11 | 39.75147 | 144.20213 | 40498 ft | 370 kts | 225° |
| 2026-05-04 06:13 | 39.59848 | 144.02336 | 40509 ft | 369 kts | 225° |
| 2026-05-04 06:14 | 39.46520 | 143.86850 | 40513 ft | 368 kts | 225° |
| 2026-05-04 06:15 | 39.42703 | 143.82431 | 40515 ft | 368 kts | 225° |
| 2026-05-04 06:15 | 39.38886 | 143.78019 | 40514 ft | 368 kts | 225° |
| 2026-05-04 06:16 | 39.35070 | 143.73613 | 40526 ft | 367 kts | 225° |
| 2026-05-04 06:16 | 39.31260 | 143.69222 | 40527 ft | 367 kts | 225° |
| 2026-05-04 06:17 | 39.27453 | 143.64841 | 40529 ft | 367 kts | 225° |
| 2026-05-04 06:17 | 39.23642 | 143.60462 | 40529 ft | 367 kts | 225° |
| 2026-05-04 06:18 | 39.19829 | 143.56088 | 40534 ft | 367 kts | 225° |
| 2026-05-04 06:20 | 39.04492 | 143.38559 | 40543 ft | 368 kts | 225° |
| 2026-05-04 06:21 | 38.94918 | 143.27694 | 40538 ft | 369 kts | 223° |
| 2026-05-04 06:22 | 38.90635 | 143.24006 | 40553 ft | 375 kts | 213° |
| 2026-05-04 06:25 | 38.53338 | 143.14505 | 40567 ft | 394 kts | 200° |
| 2026-05-04 06:26 | 38.47933 | 143.13309 | 40569 ft | 394 kts | 200° |
| 2026-05-04 06:26 | 38.42517 | 143.12113 | 40581 ft | 396 kts | 199° |
| 2026-05-04 06:27 | 38.28927 | 143.09120 | 40584 ft | 397 kts | 199° |
| 2026-05-04 06:28 | 38.23521 | 143.07933 | 40581 ft | 397 kts | 199° |
| 2026-05-04 06:28 | 38.18065 | 143.06736 | 40585 ft | 398 kts | 199° |
| 2026-05-04 06:29 | 38.12610 | 143.05541 | 40584 ft | 398 kts | 199° |
| 2026-05-04 06:29 | 38.07153 | 143.04349 | 40589 ft | 398 kts | 199° |
| 2026-05-04 06:30 | 38.01696 | 143.03157 | 40596 ft | 398 kts | 199° |
| 2026-05-04 06:30 | 37.96229 | 143.01965 | 40595 ft | 399 kts | 199° |
| 2026-05-04 06:31 | 37.90759 | 143.00775 | 40603 ft | 399 kts | 199° |
| 2026-05-04 06:31 | 37.85298 | 142.99592 | 40562 ft | 398 kts | 199° |
| 2026-05-04 06:33 | 37.63451 | 142.94858 | 40574 ft | 399 kts | 199° |
| 2026-05-04 06:34 | 37.57950 | 142.93667 | 40601 ft | 402 kts | 199° |
| 2026-05-04 06:34 | 37.52430 | 142.92479 | 40600 ft | 402 kts | 199° |
| 2026-05-04 06:36 | 37.30353 | 142.87745 | 40600 ft | 402 kts | 199° |
| 2026-05-04 06:37 | 37.24831 | 142.86572 | 40598 ft | 402 kts | 199° |
| 2026-05-04 06:37 | 37.19311 | 142.85394 | 40595 ft | 403 kts | 199° |
| 2026-05-04 06:38 | 37.13809 | 142.84121 | 40604 ft | 398 kts | 202° |
| 2026-05-04 06:40 | 36.97012 | 142.73544 | 40593 ft | 386 kts | 215° |
| 2026-05-04 06:40 | 36.94678 | 142.71883 | 40598 ft | 386 kts | 215° |
| 2026-05-04 06:40 | 36.89997 | 142.68574 | 40600 ft | 387 kts | 215° |
| 2026-05-04 06:41 | 36.85306 | 142.65278 | 40597 ft | 387 kts | 215° |
| 2026-05-04 06:41 | 36.80614 | 142.61988 | 40597 ft | 387 kts | 215° |
| 2026-05-04 06:42 | 36.75951 | 142.58722 | 40597 ft | 387 kts | 215° |
| 2026-05-04 06:44 | 36.57164 | 142.45605 | 40597 ft | 387 kts | 215° |
| 2026-05-04 06:44 | 36.52463 | 142.42334 | 40600 ft | 387 kts | 215° |
| 2026-05-04 06:45 | 36.47762 | 142.39067 | 40565 ft | 387 kts | 215° |
| 2026-05-04 06:45 | 36.43041 | 142.35790 | 40600 ft | 390 kts | 215° |
| 2026-05-04 06:46 | 36.38294 | 142.32501 | 40597 ft | 391 kts | 215° |
| 2026-05-04 06:46 | 36.33548 | 142.29219 | 40602 ft | 391 kts | 215° |
| 2026-05-04 06:48 | 36.14632 | 142.16184 | 40606 ft | 390 kts | 215° |
| 2026-05-04 06:50 | 35.95677 | 142.03124 | 40608 ft | 389 kts | 215° |
| 2026-05-04 06:51 | 35.90946 | 141.99853 | 40614 ft | 391 kts | 215° |
| 2026-05-04 06:51 | 35.86315 | 141.96388 | 40551 ft | 384 kts | 221° |
| 2026-05-04 06:52 | 35.84269 | 141.94331 | 40024 ft | 378 kts | 226° |
| 2026-05-04 06:52 | 35.82465 | 141.91997 | 39354 ft | 376 kts | 232° |
| 2026-05-04 06:52 | 35.80928 | 141.89394 | 38678 ft | 376 kts | 239° |
| 2026-05-04 06:52 | 35.79684 | 141.86565 | 37973 ft | 377 kts | 244° |
| 2026-05-04 06:53 | 35.78741 | 141.83542 | 37148 ft | 380 kts | 250° |
| 2026-05-04 06:53 | 35.78117 | 141.80355 | 36283 ft | 387 kts | 255° |
| 2026-05-04 06:53 | 35.77718 | 141.77057 | 35430 ft | 393 kts | 258° |
| 2026-05-04 06:53 | 35.77566 | 141.73659 | 34553 ft | 401 kts | 261° |
| 2026-05-04 06:54 | 35.77507 | 141.70244 | 33661 ft | 407 kts | 261° |
| 2026-05-04 06:54 | 35.77451 | 141.66735 | 32653 ft | 412 kts | 261° |
| 2026-05-04 06:54 | 35.77389 | 141.63197 | 31743 ft | 415 kts | 262° |
| 2026-05-04 06:54 | 35.77321 | 141.59636 | 30874 ft | 417 kts | 262° |
| 2026-05-04 06:55 | 35.77249 | 141.56055 | 29994 ft | 419 kts | 262° |
| 2026-05-04 06:55 | 35.77175 | 141.52460 | 29088 ft | 421 kts | 262° |
| 2026-05-04 06:55 | 35.77100 | 141.48872 | 28294 ft | 418 kts | 262° |
| 2026-05-04 06:55 | 35.77026 | 141.45310 | 27597 ft | 413 kts | 262° |
| 2026-05-04 06:56 | 35.76951 | 141.41793 | 26934 ft | 408 kts | 262° |
| 2026-05-04 06:57 | 35.76402 | 141.18384 | 22675 ft | 375 kts | 263° |
| 2026-05-04 06:58 | 35.76397 | 141.15183 | 21924 ft | 373 kts | 263° |
| 2026-05-04 06:58 | 35.76409 | 141.12005 | 21188 ft | 370 kts | 263° |
| 2026-05-04 06:58 | 35.76415 | 141.09915 | 20699 ft | 368 kts | 263° |
| 2026-05-04 06:58 | 35.76432 | 141.05723 | 19757 ft | 365 kts | 264° |
| 2026-05-04 06:59 | 35.76712 | 141.02641 | 19082 ft | 372 kts | 273° |
| 2026-05-04 06:59 | 35.77571 | 140.99587 | 18436 ft | 385 kts | 285° |
| 2026-05-04 06:59 | 35.78849 | 140.96675 | 17739 ft | 388 kts | 289° |
| 2026-05-04 06:59 | 35.80205 | 140.93813 | 17011 ft | 385 kts | 289° |
| 2026-05-04 07:01 | 35.88781 | 140.75529 | 12759 ft | 353 kts | 290° |
| 2026-05-04 07:01 | 35.89995 | 140.72912 | 12002 ft | 351 kts | 290° |
| 2026-05-04 07:02 | 35.91204 | 140.70299 | 11256 ft | 349 kts | 291° |
| 2026-05-04 07:02 | 35.92404 | 140.67704 | 10564 ft | 346 kts | 292° |
| 2026-05-04 07:02 | 35.93580 | 140.65178 | 10282 ft | 332 kts | 292° |
| 2026-05-04 07:02 | 35.94697 | 140.62784 | 10257 ft | 311 kts | 293° |
| 2026-05-04 07:03 | 35.95740 | 140.60544 | 10250 ft | 291 kts | 292° |
| 2026-05-04 07:03 | 35.96715 | 140.58444 | 10221 ft | 273 kts | 292° |
| 2026-05-04 07:03 | 35.97635 | 140.56454 | 10086 ft | 262 kts | 292° |
| 2026-05-04 07:03 | 35.98589 | 140.54523 | 9979 ft | 266 kts | 297° |
| 2026-05-04 07:04 | 35.99673 | 140.52655 | 9859 ft | 268 kts | 299° |
| 2026-05-04 07:04 | 36.00790 | 140.50805 | 9738 ft | 269 kts | 300° |
| 2026-05-04 07:04 | 36.01910 | 140.48957 | 9632 ft | 269 kts | 300° |
| 2026-05-04 07:04 | 36.03032 | 140.47105 | 9439 ft | 269 kts | 300° |
| 2026-05-04 07:05 | 36.04150 | 140.45258 | 9202 ft | 267 kts | 301° |
| 2026-05-04 07:05 | 36.05240 | 140.43463 | 9037 ft | 256 kts | 301° |
| 2026-05-04 07:05 | 36.06291 | 140.41731 | 8791 ft | 248 kts | 301° |
| 2026-05-04 07:05 | 36.07315 | 140.40035 | 8426 ft | 245 kts | 301° |
| 2026-05-04 07:06 | 36.09342 | 140.36667 | 7678 ft | 243 kts | 301° |
| 2026-05-04 07:06 | 36.10352 | 140.34987 | 7307 ft | 243 kts | 303° |
| 2026-05-04 07:06 | 36.11322 | 140.33284 | 6944 ft | 242 kts | 297° |
| 2026-05-04 07:07 | 36.11917 | 140.31378 | 6639 ft | 235 kts | 278° |
| 2026-05-04 07:08 | 36.09915 | 140.18351 | 4239 ft | 231 kts | 211° |
| 2026-05-04 07:09 | 36.08391 | 140.17731 | 4036 ft | 234 kts | 189° |
| 2026-05-04 07:09 | 36.06780 | 140.17655 | 4001 ft | 234 kts | 182° |
| 2026-05-04 07:09 | 36.05152 | 140.17692 | 4014 ft | 236 kts | 181° |
| 2026-05-04 07:09 | 36.03492 | 140.18006 | 3996 ft | 238 kts | 165° |
| 2026-05-04 07:10 | 36.02078 | 140.18863 | 3985 ft | 223 kts | 148° |
| 2026-05-04 07:10 | 36.00837 | 140.19928 | 3994 ft | 214 kts | 154° |
| 2026-05-04 07:12 | 35.92455 | 140.25922 | 3469 ft | 188 kts | 158° |
| 2026-05-04 07:12 | 35.91326 | 140.26745 | 3199 ft | 190 kts | 159° |
| 2026-05-04 07:12 | 35.90177 | 140.27580 | 2922 ft | 193 kts | 159° |
| 2026-05-04 07:12 | 35.89043 | 140.28409 | 2665 ft | 184 kts | 160° |
| 2026-05-04 07:13 | 35.87981 | 140.29183 | 2416 ft | 171 kts | 161° |
| 2026-05-04 07:13 | 35.86997 | 140.29898 | 2209 ft | 158 kts | 161° |
| 2026-05-04 07:13 | 35.86088 | 140.30559 | 2004 ft | 145 kts | 162° |
| 2026-05-04 07:14 | 35.82778 | 140.32959 | 1286 ft | 136 kts | 162° |
| 2026-05-04 07:14 | 35.81973 | 140.33544 | 1093 ft | 133 kts | 161° |
| 2026-05-04 07:15 | 35.81165 | 140.34128 | 940 ft | 135 kts | 158° |
| 2026-05-04 07:15 | 35.80358 | 140.34715 | 784 ft | 133 kts | 162° |
| 2026-05-04 07:15 | 35.79547 | 140.35279 | 646 ft | 136 kts | 156° |
| 2026-05-04 07:15 | 35.78742 | 140.35906 | 471 ft | 136 kts | 154° |
| 2026-05-04 07:16 | 35.77955 | 140.36477 | 311 ft | 130 kts | 158° |
| 2026-05-04 07:16 | 35.77163 | 140.37048 | 167 ft | 131 kts | 158° |
| 2026-05-04 07:16 | 35.76457 | 140.37540 | 151 ft | 98 kts | 150° |
| 2026-05-04 07:16 | 35.75989 | 140.37877 | 151 ft | 58 kts | 149° |
| 2026-05-04 07:17 | 35.75726 | 140.38065 | 153 ft | 39 kts | 149° |
| 2026-05-04 07:17 | 35.75535 | 140.38271 | 152 ft | 36 kts | 124° |
| 2026-05-04 07:17 | 35.75485 | 140.38373 | 152 ft | 0 kts | 120° |
| 2026-05-04 07:18 | 35.75466 | 140.38412 | 151 ft | 8 kts | 120° |
| 2026-05-04 07:18 | 35.75423 | 140.38505 | 151 ft | 15 kts | 120° |
| 2026-05-04 07:18 | 35.75350 | 140.38594 | 151 ft | 13 kts | 149° |
| 2026-05-04 07:18 | 35.75332 | 140.38651 | 151 ft | 8 kts | 66° |
| 2026-05-04 07:19 | 35.75375 | 140.38770 | 151 ft | 19 kts | 109° |
| 2026-05-04 07:19 | 35.75357 | 140.38918 | 151 ft | 18 kts | 50° |
| 2026-05-04 07:19 | 35.75474 | 140.38994 | 151 ft | 20 kts | 24° |
| 2026-05-04 07:19 | 35.75611 | 140.39070 | 150 ft | 23 kts | 24° |
| 2026-05-04 07:20 | 35.75719 | 140.39170 | 150 ft | 17 kts | 57° |
| 2026-05-04 07:20 | 35.75798 | 140.39290 | 150 ft | 19 kts | 32° |
| 2026-05-04 07:20 | 35.75923 | 140.39362 | 150 ft | 21 kts | 24° |
| 2026-05-04 07:20 | 35.76065 | 140.39441 | 150 ft | 24 kts | 24° |
| 2026-05-04 07:22 | 35.76916 | 140.39669 | 150 ft | 20 kts | 291° |
| 2026-05-04 07:22 | 35.76878 | 140.39518 | 150 ft | 18 kts | 240° |
| 2026-05-04 07:23 | 35.76917 | 140.39417 | 152 ft | 15 kts | 326° |
| 2026-05-04 07:23 | 35.77007 | 140.39348 | 150 ft | 7 kts | 318° |
| 2026-05-04 07:23 | 35.77013 | 140.39310 | 150 ft | 6 kts | 276° |
| 2026-05-04 07:23 | 35.77013 | 140.39251 | 150 ft | 8 kts | 266° |
| 2026-05-04 07:24 | 35.77011 | 140.39221 | 152 ft | 1 kts | 265° |
| 2026-05-04 07:24 | 35.77011 | 140.39216 | 152 ft | 1 kts | 265° |
| 2026-05-04 07:24 | 35.77010 | 140.39207 | 150 ft | 1 kts | 265° |
| 2026-05-04 07:24 | 35.77010 | 140.39205 | 150 ft | 0 kts | 265° |
| 2026-05-04 07:25 | 35.77010 | 140.39201 | 150 ft | 0 kts | 265° |